Time;durP1;ratioP1;P1;durP2;ratioP2;P2;SDS_P1;SDS_P2;PMS_P1;PMS_P2;Temp;Humidity;BMP_temperature;BMP_pressure;BME280_temperature;BME280_humidity;BME280_pressure;Samples;Min_cycle;Max_cycle;Signal;HPM_P1;HPM_P2
2023/06/20 00:01:11;;;;;;;;;;;;;;;31.01;34.90;94266.31;5038997;28;7262;-62
2023/06/20 00:03:37;;;;;;;;;;;;;;;30.97;35.55;94258.31;5013368;28;9308;-62
2023/06/20 00:06:03;;;;;;;;;;;;;;;30.96;35.56;94253.31;5027271;28;7269;-62
2023/06/20 00:08:38;;;;;;;;;;;;;;;30.94;35.21;94253.13;5040054;28;8906;-62
2023/06/20 00:11:08;;;;;;;;;;;;;;;30.96;34.85;94254.06;5042426;28;7031;-62
2023/06/20 00:13:42;;;;;;;;;;;;;;;30.90;35.59;94256.28;5055485;28;8697;-62
2023/06/20 00:16:45;;;;;;;;;;;;;;;30.94;35.67;94258.69;5015893;28;8764;-62
2023/06/20 00:19:14;;;;;;;;;;;;;;;30.92;35.15;94258.50;4974620;28;7080;-62
2023/06/20 00:21:57;;;;;;;;;;;;;;;30.93;35.14;94271.81;4982465;28;7018;-62
2023/06/20 00:24:48;;;;;;;;;;;;;;;30.96;35.50;94272.75;4963009;28;8997;-62
2023/06/20 00:28:10;;;;;;;;;;;;;;;30.95;36.08;94285.91;4955117;28;7232;-62
2023/06/20 00:30:36;;;;;;;;;;;;;;;30.94;35.37;94275.34;4898081;29;9015;-62
2023/06/20 00:33:18;;;;;;;;;;;;;;;30.91;35.45;94293.09;4881820;29;7006;-62
2023/06/20 00:36:25;;;;;;;;;;;;;;;30.91;35.85;94302.19;4893677;29;7783;-62
2023/06/20 00:39:21;;;;;;;;;;;;;;;30.89;36.34;94292.91;4841092;29;9023;-62
2023/06/20 00:41:51;;;;;;;;;;;;;;;30.89;36.34;94287.34;4786276;29;9147;-62
2023/06/20 00:44:18;;;;;;;;;;;;;;;30.91;36.12;94293.09;4784694;29;7024;-62
2023/06/20 00:46:55;;;;;;;;;;;;;;;30.88;36.03;94286.63;4772856;30;9512;-62
2023/06/20 00:49:57;;;;;;;;;;;;;;;30.86;36.32;94272.56;4770487;30;8991;-62
2023/06/20 00:52:35;;;;;;;;;;;;;;;30.86;35.38;94277.34;4787547;29;7438;-62
2023/06/20 00:55:07;;;;;;;;;;;;;;;30.86;35.68;94280.09;4814726;29;7907;-62
2023/06/20 00:57:38;;;;;;;;;;;;;;;30.88;36.06;94280.31;4839078;29;7371;-62
2023/06/20 01:00:14;;;;;;;;;;;;;;;30.87;35.98;94301.06;4826051;29;8984;-62
2023/06/20 01:02:53;;;;;;;;;;;;;;;30.83;36.13;94295.06;4835728;29;9397;-62
2023/06/20 01:05:53;;;;;;;;;;;;;;;30.83;35.63;94281.94;4854344;29;9082;-62
2023/06/20 01:08:34;;;;;;;;;;;;;;;30.79;35.69;94266.94;4857742;29;7697;-62
2023/06/20 01:11:48;;;;;;;;;;;;;;;30.83;35.98;94240.28;4859791;29;7596;-62
2023/06/20 01:14:14;;;;;;;;;;;;;;;30.80;36.28;94221.22;4877338;29;7337;-62
2023/06/20 01:17:13;;;;;;;;;;;;;;;30.79;35.98;94212.13;4942638;28;8431;-62
2023/06/20 01:19:43;;;;;;;;;;;;;;;30.80;35.67;94212.88;5036796;28;7042;-62
2023/06/20 01:22:38;;;;;;;;;;;;;;;30.81;35.84;94206.03;5038145;28;7188;-62
2023/06/20 01:25:19;;;;;;;;;;;;;;;30.79;35.44;94206.59;5035461;28;7210;-62
2023/06/20 01:28:09;;;;;;;;;;;;;;;30.75;36.52;94208.97;5013282;28;9277;-62
2023/06/20 01:31:12;;;;;;;;;;;;;;;30.77;36.03;94208.41;4963951;28;7153;-62
2023/06/20 01:34:16;;;;;;;;;;;;;;;30.76;35.38;94218.03;4972116;28;8671;-62
2023/06/20 01:36:59;;;;;;;;;;;;;;;30.75;36.20;94233.97;4955512;28;7053;-62
2023/06/20 01:39:42;;;;;;;;;;;;;;;30.73;36.57;94236.56;4962404;28;9048;-63
2023/06/20 01:42:39;;;;;;;;;;;;;;;30.80;36.52;94240.66;4971364;28;7364;-62
2023/06/20 01:45:47;;;;;;;;;;;;;;;30.76;35.86;94245.78;4887785;29;7334;-62
2023/06/20 01:48:27;;;;;;;;;;;;;;;30.73;36.25;94250.44;4901633;29;7032;-62
2023/06/20 01:50:54;;;;;;;;;;;;;;;30.74;35.47;94251.91;4886720;29;7233;-62
2023/06/20 01:53:57;;;;;;;;;;;;;;;30.73;35.96;94252.47;4903076;29;6858;-62
2023/06/20 01:56:43;;;;;;;;;;;;;;;30.70;35.49;94264.66;4899896;29;7034;-62
2023/06/20 01:59:24;;;;;;;;;;;;;;;30.70;36.01;94264.66;4902213;29;7608;-62
2023/06/20 02:01:56;;;;;;;;;;;;;;;30.67;36.33;94260.22;4903729;29;7497;-62
2023/06/20 02:04:37;;;;;;;;;;;;;;;30.71;35.82;94275.19;4901000;29;7050;-62
2023/06/20 02:07:05;;;;;;;;;;;;;;;30.73;36.53;94277.44;4914394;28;7517;-63
2023/06/20 02:09:36;;;;;;;;;;;;;;;30.73;36.49;94277.44;4940079;28;7292;-62
2023/06/20 02:12:09;;;;;;;;;;;;;;;30.72;36.22;94262.06;4954886;28;9054;-62
2023/06/20 02:14:37;;;;;;;;;;;;;;;30.71;35.93;94257.81;4954540;28;7033;-62
2023/06/20 02:17:07;;;;;;;;;;;;;;;30.71;36.55;94263.38;4938074;28;9027;-62
2023/06/20 02:19:35;;;;;;;;;;;;;;;30.69;35.76;94249.31;4971534;28;7516;-61
2023/06/20 02:22:11;;;;;;;;;;;;;;;30.71;35.61;94252.28;5014457;28;7290;-62
2023/06/20 02:24:40;;;;;;;;;;;;;;;30.73;35.74;94258.00;5051891;28;8265;-62
2023/06/20 02:27:12;;;;;;;;;;;;;;;30.68;35.89;94259.66;5036189;28;9111;-62
2023/06/20 02:29:47;;;;;;;;;;;;;;;30.68;35.72;94247.81;5035075;28;7038;-62
2023/06/20 02:32:17;;;;;;;;;;;;;;;30.66;36.61;94250.38;5036783;28;9372;-63
2023/06/20 02:34:47;;;;;;;;;;;;;;;30.65;36.95;94257.97;5027467;28;9086;-63
2023/06/20 02:37:15;;;;;;;;;;;;;;;30.67;36.29;94251.88;5034205;28;7331;-62
2023/06/20 02:39:41;;;;;;;;;;;;;;;30.68;36.02;94250.56;5034956;28;7034;-62
2023/06/20 02:42:07;;;;;;;;;;;;;;;30.65;36.33;94232.97;5025078;28;8736;-62
2023/06/20 02:44:35;;;;;;;;;;;;;;;30.65;36.53;94232.97;5033480;28;9227;-62
2023/06/20 02:47:14;;;;;;;;;;;;;;;30.67;36.29;94238.00;5035034;28;7150;-62
2023/06/20 02:49:56;;;;;;;;;;;;;;;30.64;35.88;94217.63;5035830;28;7058;-62
2023/06/20 02:52:49;;;;;;;;;;;;;;;30.65;36.67;94187.81;5024871;28;9065;-62
2023/06/20 02:55:34;;;;;;;;;;;;;;;30.65;36.82;94165.59;5019087;28;9121;-62
2023/06/20 02:58:12;;;;;;;;;;;;;;;30.64;36.23;94139.88;5017825;28;9086;-62
2023/06/20 03:00:45;;;;;;;;;;;;;;;30.63;36.67;94141.16;5017925;28;9147;-62
2023/06/20 03:03:43;;;;;;;;;;;;;;;30.62;35.83;94152.84;5035589;28;9379;-62
2023/06/20 03:06:14;;;;;;;;;;;;;;;30.62;36.46;94161.16;5010373;28;7111;-62
2023/06/20 03:08:49;;;;;;;;;;;;;;;30.61;36.16;94168.75;5028522;28;9111;-62
2023/06/20 03:11:15;;;;;;;;;;;;;;;30.62;36.76;94164.69;5022247;28;7070;-62
2023/06/20 03:13:41;;;;;;;;;;;;;;;30.61;36.09;94173.53;5055385;28;8793;-62
2023/06/20 03:16:09;;;;;;;;;;;;;;;30.60;36.11;94177.63;5053669;28;7453;-62
2023/06/20 03:18:36;;;;;;;;;;;;;;;30.62;36.01;94172.25;5029397;28;7130;-62
2023/06/20 03:21:04;;;;;;;;;;;;;;;30.58;36.77;94158.72;5029162;28;7325;-62
2023/06/20 03:23:31;;;;;;;;;;;;;;;30.60;36.41;94160.97;5015541;28;9316;-61
2023/06/20 03:25:59;;;;;;;;;;;;;;;30.60;36.26;94160.97;5030185;28;7324;-62
2023/06/20 03:28:33;;;;;;;;;;;;;;;30.59;36.72;94170.56;5035986;28;7104;-62
2023/06/20 03:30:59;;;;;;;;;;;;;;;30.61;36.29;94168.00;5038502;28;7060;-62
2023/06/20 03:33:25;;;;;;;;;;;;;;;30.61;36.67;94173.53;5013203;28;9000;-62
2023/06/20 03:35:59;;;;;;;;;;;;;;;30.59;36.18;94165.03;5030776;28;7503;-62
2023/06/20 03:38:35;;;;;;;;;;;;;;;30.57;36.36;94162.06;5022064;28;9631;-62
2023/06/20 03:41:02;;;;;;;;;;;;;;;30.57;35.88;94160.03;5031243;28;8268;-62
2023/06/20 03:43:37;;;;;;;;;;;;;;;30.54;36.66;94159.09;5029816;28;7328;-62
2023/06/20 03:46:05;;;;;;;;;;;;;;;30.54;36.03;94161.13;5037456;28;9148;-62
2023/06/20 03:48:33;;;;;;;;;;;;;;;30.57;36.05;94168.34;5031092;28;7240;-62
2023/06/20 03:50:59;;;;;;;;;;;;;;;30.56;36.37;94175.19;5015750;28;7037;-62
2023/06/20 03:53:27;;;;;;;;;;;;;;;30.56;36.59;94182.78;5056873;28;7047;-62
2023/06/20 03:56:02;;;;;;;;;;;;;;;30.56;35.95;94185.56;5017464;28;9098;-63
2023/06/20 03:58:29;;;;;;;;;;;;;;;30.56;36.94;94171.69;5024290;28;7448;-63
2023/06/20 04:00:56;;;;;;;;;;;;;;;30.53;36.31;94165.94;5013255;28;9393;-63
2023/06/20 04:03:31;;;;;;;;;;;;;;;30.54;35.90;94167.41;5040952;28;7285;-63
2023/06/20 04:06:01;;;;;;;;;;;;;;;30.56;35.99;94157.81;5040296;28;7025;-63
2023/06/20 04:09:04;;;;;;;;;;;;;;;30.56;36.91;94160.59;5058936;28;7078;-63
2023/06/20 04:11:32;;;;;;;;;;;;;;;30.52;36.84;94158.91;5034411;28;7357;-63
2023/06/20 04:13:59;;;;;;;;;;;;;;;30.52;36.75;94170.00;5026802;28;7076;-63
2023/06/20 04:16:27;;;;;;;;;;;;;;;30.51;35.73;94170.56;5015818;28;7278;-63
2023/06/20 04:18:53;;;;;;;;;;;;;;;30.49;36.84;94159.28;5057808;28;7257;-63
2023/06/20 04:21:37;;;;;;;;;;;;;;;30.52;35.88;94158.16;5040661;28;9210;-63
2023/06/20 04:24:16;;;;;;;;;;;;;;;30.51;35.63;94149.09;5040922;28;7009;-63
2023/06/20 04:26:54;;;;;;;;;;;;;;;30.52;35.77;94144.28;5058846;28;9008;-63
2023/06/20 04:29:22;;;;;;;;;;;;;;;30.51;35.97;94146.31;5056750;28;8907;-63
2023/06/20 04:31:52;;;;;;;;;;;;;;;30.51;35.91;94149.09;5038894;28;7355;-62
2023/06/20 04:34:25;;;;;;;;;;;;;;;30.52;36.31;94147.81;5030314;28;9150;-63
2023/06/20 04:36:53;;;;;;;;;;;;;;;30.53;36.05;94149.28;5023572;28;9220;-63
2023/06/20 04:39:31;;;;;;;;;;;;;;;30.54;36.29;94150.75;5016532;28;9051;-62
2023/06/20 04:42:07;;;;;;;;;;;;;;;30.56;35.77;94150.22;5032016;28;7671;-63
2023/06/20 04:44:44;;;;;;;;;;;;;;;30.56;36.79;94143.94;5014709;28;6987;-63
2023/06/20 04:47:16;;;;;;;;;;;;;;;30.54;36.43;94148.00;5028954;28;6993;-62
2023/06/20 04:49:43;;;;;;;;;;;;;;;30.57;36.79;94145.41;5037765;28;7043;-62
2023/06/20 04:52:16;;;;;;;;;;;;;;;30.57;36.06;94134.31;5007592;28;8619;-61
2023/06/20 04:54:45;;;;;;;;;;;;;;;30.60;36.85;94133.22;5032199;28;9200;-62
2023/06/20 04:57:11;;;;;;;;;;;;;;;30.56;36.57;94133.56;5025100;28;7234;-62
2023/06/20 04:59:38;;;;;;;;;;;;;;;30.57;36.32;94135.06;5050620;28;7151;-62
2023/06/20 05:02:06;;;;;;;;;;;;;;;30.58;37.19;94139.28;5029180;28;9123;-61
2023/06/20 05:04:36;;;;;;;;;;;;;;;30.57;37.37;94128.75;5050050;28;9169;-62
2023/06/20 05:07:02;;;;;;;;;;;;;;;30.56;37.26;94127.28;5037597;28;7373;-62
2023/06/20 05:09:30;;;;;;;;;;;;;;;30.55;37.02;94126.53;5034968;28;7004;-62
2023/06/20 05:11:57;;;;;;;;;;;;;;;30.54;38.11;94131.34;5035249;28;7193;-62
2023/06/20 05:14:29;;;;;;;;;;;;;;;30.54;37.74;94122.25;5034310;28;9578;-62
2023/06/20 05:16:55;;;;;;;;;;;;;;;30.51;38.15;94118.53;5031774;28;7264;-63
2023/06/20 05:19:26;;;;;;;;;;;;;;;30.53;38.29;94118.75;5033981;28;7883;-63
2023/06/20 05:22:13;;;;;;;;;;;;;;;30.50;38.20;94124.66;5042655;28;7271;-62
2023/06/20 05:24:56;;;;;;;;;;;;;;;30.50;38.02;94119.84;5047652;28;9012;-62
2023/06/20 05:27:24;;;;;;;;;;;;;;;30.52;39.22;94127.63;5034589;28;9316;-62
2023/06/20 05:29:52;;;;;;;;;;;;;;;30.53;38.31;94129.13;5011665;28;7455;-62
2023/06/20 05:32:20;;;;;;;;;;;;;;;30.51;39.16;94120.59;5034526;28;8499;-63
2023/06/20 05:34:47;;;;;;;;;;;;;;;30.51;37.92;94120.59;5050999;28;7474;-62
2023/06/20 05:37:20;;;;;;;;;;;;;;;30.49;37.83;94129.47;5012644;28;8891;-63
2023/06/20 05:39:52;;;;;;;;;;;;;;;30.47;39.47;94126.50;5034532;28;7279;-64
2023/06/20 05:42:20;;;;;;;;;;;;;;;30.45;37.92;94128.31;5057781;28;7206;-64
2023/06/20 05:44:58;;;;;;;;;;;;;;;30.47;37.85;94137.59;5041426;28;8915;-63
2023/06/20 05:47:32;;;;;;;;;;;;;;;30.47;38.29;94134.81;5055497;28;9065;-63
2023/06/20 05:50:01;;;;;;;;;;;;;;;30.47;38.51;94134.81;5030019;28;9450;-63
2023/06/20 05:52:35;;;;;;;;;;;;;;;30.49;37.75;94135.00;5029507;28;7295;-64
2023/06/20 05:55:21;;;;;;;;;;;;;;;30.51;38.37;94129.66;5013689;28;9438;-63
2023/06/20 05:58:12;;;;;;;;;;;;;;;30.51;38.74;94117.81;5036028;28;7293;-63
2023/06/20 06:00:38;;;;;;;;;;;;;;;30.49;38.42;94126.69;5011471;28;7293;-63
2023/06/20 06:03:18;;;;;;;;;;;;;;;30.47;39.20;94132.03;5013216;28;7283;-63
2023/06/20 06:05:45;;;;;;;;;;;;;;;30.47;39.18;94132.03;5023963;28;7092;-64
2023/06/20 06:08:20;;;;;;;;;;;;;;;30.49;38.69;94135.00;5029992;28;7483;-63
2023/06/20 06:10:55;;;;;;;;;;;;;;;30.49;38.18;94126.69;5014450;28;9060;-63
2023/06/20 06:13:31;;;;;;;;;;;;;;;30.49;38.08;94135.00;5033658;28;8227;-63
2023/06/20 06:16:00;;;;;;;;;;;;;;;30.52;39.60;94138.72;5052446;28;7004;-62
2023/06/20 06:18:31;;;;;;;;;;;;;;;30.50;39.08;94130.97;5038572;28;7121;-63
2023/06/20 06:21:07;;;;;;;;;;;;;;;30.48;39.59;94132.78;5041315;28;7239;-63
2023/06/20 06:23:53;;;;;;;;;;;;;;;30.44;39.52;94133.16;5040654;28;7091;-63
2023/06/20 06:26:35;;;;;;;;;;;;;;;30.48;38.69;94136.31;5038035;28;7271;-62
2023/06/20 06:29:04;;;;;;;;;;;;;;;30.48;39.06;94136.31;5029028;28;9465;-62
2023/06/20 06:31:34;;;;;;;;;;;;;;;30.46;39.27;94130.56;5035698;28;7158;-63
2023/06/20 06:34:16;;;;;;;;;;;;;;;30.47;38.56;94132.03;5039311;28;8808;-63
2023/06/20 06:36:50;;;;;;;;;;;;;;;30.46;38.24;94130.56;5037680;28;8573;-62
2023/06/20 06:39:25;;;;;;;;;;;;;;;30.46;38.51;94127.81;5035795;28;9126;-63
2023/06/20 06:41:57;;;;;;;;;;;;;;;30.47;39.20;94120.94;5032191;28;7036;-63
2023/06/20 06:44:45;;;;;;;;;;;;;;;30.48;39.43;94121.69;5039992;28;9053;-62
2023/06/20 06:47:11;;;;;;;;;;;;;;;30.45;38.71;94112.44;5028275;28;7265;-62
2023/06/20 06:50:32;;;;;;;;;;;;;;;30.47;39.29;94107.06;5037160;28;9185;-62
2023/06/20 06:53:30;;;;;;;;;;;;;;;30.47;38.48;94118.16;5021920;28;9001;-63
2023/06/20 06:56:25;;;;;;;;;;;;;;;30.46;39.53;94129.81;4933604;29;9164;-62
2023/06/20 06:59:11;;;;;;;;;;;;;;;30.46;38.83;94102.06;4873064;29;7235;-63
2023/06/20 07:01:47;;;;;;;;;;;;;;;30.46;38.66;94115.94;4874072;29;9018;-63
2023/06/20 07:04:14;;;;;;;;;;;;;;;30.45;39.64;94112.44;4856129;29;7038;-62
2023/06/20 07:07:14;;;;;;;;;;;;;;;30.45;39.48;94106.88;4874895;29;7213;-62
2023/06/20 07:10:07;;;;;;;;;;;;;;;30.46;39.53;94110.41;4872684;29;9247;-62
2023/06/20 07:13:09;;;;;;;;;;;;;;;30.45;39.66;94106.88;4874832;29;7134;-63
2023/06/20 07:15:39;;;;;;;;;;;;;;;30.45;39.13;94095.78;4860116;29;9103;-62
2023/06/20 07:18:29;;;;;;;;;;;;;;;30.47;39.86;94103.56;4873097;29;7064;-62
2023/06/20 07:21:09;;;;;;;;;;;;;;;30.45;39.67;94104.09;4869754;29;7444;-62
2023/06/20 07:23:36;;;;;;;;;;;;;;;30.43;40.01;94094.84;4876177;29;9107;-62
2023/06/20 07:26:04;;;;;;;;;;;;;;;30.42;40.80;94091.34;4874699;29;7047;-62
2023/06/20 07:28:51;;;;;;;;;;;;;;;30.43;40.02;94095.59;4882447;29;7175;-62
2023/06/20 07:31:20;;;;;;;;;;;;;;;30.43;40.63;94092.81;4898469;28;7138;-62
2023/06/20 07:33:46;;;;;;;;;;;;;;;30.41;40.70;94089.84;4964038;28;7233;-62
2023/06/20 07:36:13;;;;;;;;;;;;;;;30.45;40.01;94095.78;5024014;28;7345;-62
2023/06/20 07:38:39;;;;;;;;;;;;;;;30.46;40.24;94090.97;5030821;28;7028;-62
2023/06/20 07:41:05;;;;;;;;;;;;;;;30.44;40.70;94088.75;5023540;28;7254;-62
2023/06/20 07:43:33;;;;;;;;;;;;;;;30.44;41.07;94083.22;5031391;28;8947;-62
2023/06/20 07:46:06;;;;;;;;;;;;;;;30.44;41.01;94082.47;5008714;28;9465;-62
2023/06/20 07:48:38;;;;;;;;;;;;;;;30.43;40.90;94075.41;5020089;28;8755;-62
2023/06/20 07:51:22;;;;;;;;;;;;;;;30.42;40.80;94071.91;5036913;28;9156;-62
2023/06/20 07:54:03;;;;;;;;;;;;;;;30.45;40.29;94073.56;5033526;28;8723;-62
2023/06/20 07:56:29;;;;;;;;;;;;;;;30.45;40.42;94068.03;5038283;28;7118;-62
2023/06/20 07:59:14;;;;;;;;;;;;;;;30.47;40.56;94076.53;5038413;28;8238;-62
2023/06/20 08:01:58;;;;;;;;;;;;;;;30.48;40.61;94075.25;5043048;28;7083;-62
2023/06/20 08:04:24;;;;;;;;;;;;;;;30.45;39.95;94068.03;5024934;28;8831;-62
2023/06/20 08:06:50;;;;;;;;;;;;;;;30.45;40.32;94065.25;5040088;28;7013;-62
2023/06/20 08:09:36;;;;;;;;;;;;;;;30.47;39.30;94059.16;5038380;28;7278;-62
2023/06/20 08:12:23;;;;;;;;;;;;;;;30.44;40.28;94061.00;5056476;28;7042;-62
2023/06/20 08:15:08;;;;;;;;;;;;;;;30.47;39.64;94056.38;5043358;28;7265;-62
2023/06/20 08:17:35;;;;;;;;;;;;;;;30.46;38.70;94047.31;5021793;28;7034;-63
2023/06/20 08:20:06;;;;;;;;;;;;;;;30.48;39.03;94047.50;5041925;28;7553;-62
2023/06/20 08:22:45;;;;;;;;;;;;;;;30.48;38.89;94041.94;5044953;28;8697;-63
2023/06/20 08:25:12;;;;;;;;;;;;;;;30.49;40.00;94042.69;5021787;28;7239;-63
2023/06/20 08:28:00;;;;;;;;;;;;;;;30.48;39.32;94047.50;5043358;28;7116;-63
2023/06/20 08:30:26;;;;;;;;;;;;;;;30.48;39.37;94038.44;5060854;28;6941;-63
2023/06/20 08:32:51;;;;;;;;;;;;;;;30.47;39.22;94037.69;5058084;28;7030;-62
2023/06/20 08:35:23;;;;;;;;;;;;;;;30.46;38.97;94041.75;5031286;28;8814;-62
2023/06/20 08:38:09;;;;;;;;;;;;;;;30.47;39.70;94032.13;5042012;28;7064;-63
2023/06/20 08:40:58;;;;;;;;;;;;;;;30.50;39.86;94030.28;5030631;28;9072;-63
2023/06/20 08:46:56;;;;;;;;;;;;;;;30.50;39.64;94022.72;5038154;28;9090;-63
2023/06/20 08:49:23;;;;;;;;;;;;;;;30.51;39.16;94026.94;5053119;28;7274;-63
2023/06/20 08:52:08;;;;;;;;;;;;;;;30.54;39.14;94014.75;5041970;28;9040;-62
2023/06/20 08:54:49;;;;;;;;;;;;;;;30.57;39.44;94012.16;5042327;28;9030;-62
2023/06/20 08:57:17;;;;;;;;;;;;;;;30.58;40.09;94014.38;5037919;28;7615;-61
2023/06/20 09:00:00;;;;;;;;;;;;;;;30.61;39.66;94018.09;5033709;28;8189;-62
2023/06/20 09:02:57;;;;;;;;;;;;;;;30.62;39.62;94016.81;5040019;28;10046;-61
2023/06/20 09:05:57;;;;;;;;;;;;;;;30.61;39.87;94018.09;4965944;28;7049;-61
2023/06/20 09:08:37;;;;;;;;;;;;;;;30.63;39.76;94021.78;4940351;28;9056;-61
2023/06/20 09:11:12;;;;;;;;;;;;;;;30.65;39.41;94024.75;4946131;28;7120;-61
2023/06/20 09:13:50;;;;;;;;;;;;;;;30.65;39.61;94026.78;4924759;28;7180;-61
2023/06/20 09:17:03;;;;;;;;;;;;;;;30.66;40.68;94014.41;4941353;28;7354;-61
2023/06/20 09:19:46;;;;;;;;;;;;;;;30.69;39.79;94013.31;4939890;28;7272;-61
2023/06/20 09:22:44;;;;;;;;;;;;;;;30.66;40.27;94014.41;4925389;29;7281;-61
2023/06/20 09:25:30;;;;;;;;;;;;;;;30.63;39.85;94010.69;4899940;29;9211;-62
2023/06/20 09:28:34;;;;;;;;;;;;;;;30.61;38.44;94013.28;4877764;29;9050;-62
2023/06/20 09:31:10;;;;;;;;;;;;;;;30.62;38.04;94000.16;4900518;29;7437;-61
2023/06/20 09:33:49;;;;;;;;;;;;;;;30.63;38.48;94004.41;4891753;29;7089;-62
2023/06/20 09:36:29;;;;;;;;;;;;;;;30.64;38.95;94003.13;4883003;29;7032;-61
2023/06/20 09:38:56;;;;;;;;;;;;;;;30.63;38.83;94015.50;4900657;29;7260;-61
2023/06/20 09:45:14;;;;;;;;;;;;;;;30.68;38.44;94006.25;4935945;28;7026;-61
2023/06/20 09:48:19;;;;;;;;;;;;;;;30.71;38.74;94000.31;4951219;28;8320;-61
2023/06/20 09:51:31;;;;;;;;;;;;;;;30.74;38.93;93998.47;4935846;28;7318;-61
2023/06/20 09:54:06;;;;;;;;;;;;;;;30.73;38.49;93997.00;4949162;28;7237;-61
2023/06/20 09:56:43;;;;;;;;;;;;;;;30.74;38.90;93995.69;4938008;28;7121;-61
2023/06/20 09:59:50;;;;;;;;;;;;;;;30.75;38.25;93994.41;4959670;28;8822;-56
2023/06/20 10:02:30;;;;;;;;;;;;;;;30.80;38.43;93996.28;5035056;28;8942;-56
2023/06/20 10:05:24;;;;;;;;;;;;;;;30.82;38.10;93990.91;5040204;28;9189;-56
2023/06/20 10:08:13;;;;;;;;;;;;;;;30.84;38.09;93991.09;5020398;28;7222;-57
2023/06/20 10:11:13;;;;;;;;;;;;;;;30.84;39.01;93985.53;5035890;28;8189;-57
2023/06/20 10:13:55;;;;;;;;;;;;;;;30.83;38.43;93986.81;4964904;28;8793;-57
2023/06/20 10:20:48;;;;;;;;;;;;;;;30.80;38.22;93990.72;4977103;28;7633;-57
2023/06/20 10:27:26;;;;;;;;;;;;;;;30.83;37.31;93984.81;4930551;29;7290;-57
2023/06/20 10:30:12;;;;;;;;;;;;;;;30.84;37.68;93985.53;4901798;29;7117;-57
2023/06/20 10:33:08;;;;;;;;;;;;;;;30.87;37.71;93987.22;4899179;29;7317;-57
2023/06/20 10:36:46;;;;;;;;;;;;;;;30.87;38.44;93984.44;4895374;29;7305;-57
2023/06/20 10:39:37;;;;;;;;;;;;;;;30.89;37.74;93992.97;4880293;29;9079;-57
2023/06/20 10:42:32;;;;;;;;;;;;;;;30.89;37.75;93985.38;4884357;29;7475;-57
2023/06/20 10:45:16;;;;;;;;;;;;;;;30.92;38.01;93980.75;4899851;29;8993;-57
2023/06/20 10:48:03;;;;;;;;;;;;;;;30.94;37.84;93984.47;4899885;29;8765;-57
2023/06/20 10:50:49;;;;;;;;;;;;;;;30.97;37.87;93979.81;4938167;29;9198;-57
2023/06/20 10:53:27;;;;;;;;;;;;;;;30.97;37.65;93955.56;4921193;29;8734;-57
2023/06/20 10:56:24;;;;;;;;;;;;;;;31.02;37.80;93976.09;4937996;29;7647;-57
2023/06/20 10:58:51;;;;;;;;;;;;;;;31.04;37.49;93962.41;4890034;29;9094;-57
2023/06/20 11:01:38;;;;;;;;;;;;;;;31.03;38.15;93958.91;4914756;29;9004;-57
2023/06/20 11:04:47;;;;;;;;;;;;;;;31.05;38.45;93955.56;4921643;29;7225;-57
2023/06/20 11:07:23;;;;;;;;;;;;;;;31.06;37.75;93957.75;4953152;28;9777;-57
2023/06/20 11:09:49;;;;;;;;;;;;;;;31.08;38.68;93957.22;4954415;28;7335;-57
2023/06/20 11:12:28;;;;;;;;;;;;;;;31.11;39.06;93959.63;4952096;28;7925;-57
2023/06/20 11:14:54;;;;;;;;;;;;;;;31.13;39.46;93956.28;4952528;28;7207;-57
2023/06/20 11:17:49;;;;;;;;;;;;;;;31.17;38.77;93956.63;4949215;28;7034;-56
2023/06/20 11:20:25;;;;;;;;;;;;;;;31.16;39.64;93950.34;4913023;29;7247;-57
2023/06/20 11:23:12;;;;;;;;;;;;;;;31.16;38.61;93944.06;4914396;29;7287;-57
2023/06/20 11:25:41;;;;;;;;;;;;;;;31.11;38.68;93937.41;4910064;29;7253;-59
2023/06/20 11:28:19;;;;;;;;;;;;;;;31.12;39.36;93943.69;4897106;29;7033;-56
2023/06/20 11:31:10;;;;;;;;;;;;;;;31.10;39.58;93941.47;4913948;29;9360;-56
2023/06/20 11:33:46;;;;;;;;;;;;;;;31.09;38.37;93931.66;4914951;29;7295;-57
2023/06/20 11:36:37;;;;;;;;;;;;;;;31.09;38.54;93942.03;4928081;29;9119;-57
2023/06/20 11:39:31;;;;;;;;;;;;;;;31.10;39.10;93929.63;4934631;28;7317;-57
2023/06/20 11:41:58;;;;;;;;;;;;;;;31.09;39.13;93930.91;4935363;29;7246;-56
2023/06/20 11:44:25;;;;;;;;;;;;;;;31.09;39.06;93928.88;4934512;29;9046;-57
2023/06/20 11:51:08;;;;;;;;;;;;;;;31.11;38.51;93920.72;4936173;29;6800;-57
2023/06/20 11:54:05;;;;;;;;;;;;;;;31.11;39.79;93925.53;4935708;29;9511;-57
2023/06/20 11:57:03;;;;;;;;;;;;;;;31.14;38.49;93916.09;4950737;28;8932;-57
2023/06/20 11:59:41;;;;;;;;;;;;;;;31.15;38.64;93917.56;4984446;28;7354;-57
2023/06/20 12:02:46;;;;;;;;;;;;;;;31.15;39.21;93915.53;4961866;28;9629;-57
2023/06/20 12:05:41;;;;;;;;;;;;;;;31.12;39.52;93919.41;4985702;28;7048;-57
2023/06/20 12:08:10;;;;;;;;;;;;;;;31.15;39.35;93920.34;4941578;28;8996;-57
2023/06/20 12:11:00;;;;;;;;;;;;;;;31.16;38.51;93921.81;4927741;28;7264;-57
2023/06/20 12:13:32;;;;;;;;;;;;;;;31.16;39.84;93916.28;4924043;28;7178;-57
2023/06/20 12:16:02;;;;;;;;;;;;;;;31.18;39.13;93922.75;4926413;28;7039;-57
2023/06/20 12:18:29;;;;;;;;;;;;;;;31.15;38.83;93914.78;4926859;28;8921;-57
2023/06/20 12:24:20;;;;;;;;;;;;;;;31.20;39.03;93905.50;4945237;28;7049;-57
2023/06/20 12:27:03;;;;;;;;;;;;;;;31.20;39.07;93908.28;4945979;28;7225;-57
2023/06/20 12:29:29;;;;;;;;;;;;;;;31.21;38.82;93907.00;4925610;28;8038;-57
2023/06/20 12:31:55;;;;;;;;;;;;;;;31.20;39.10;93913.84;4945315;28;7643;-56
2023/06/20 12:34:35;;;;;;;;;;;;;;;31.18;39.85;93914.41;4942455;28;6848;-57
2023/06/20 12:37:03;;;;;;;;;;;;;;;31.17;39.97;93915.69;4957623;28;9061;-57
2023/06/20 12:39:38;;;;;;;;;;;;;;;31.14;39.18;93907.75;4943982;28;7042;-57
2023/06/20 12:42:07;;;;;;;;;;;;;;;31.15;40.10;93906.44;4935713;28;9191;-57
2023/06/20 12:44:40;;;;;;;;;;;;;;;31.15;39.79;93898.84;4979005;28;7074;-57
2023/06/20 12:47:31;;;;;;;;;;;;;;;31.14;39.67;93904.97;5028202;28;7032;-57
2023/06/20 12:50:05;;;;;;;;;;;;;;;31.11;38.67;93895.72;5040953;28;7066;-57
2023/06/20 12:53:00;;;;;;;;;;;;;;;31.12;39.50;93905.53;5022753;28;9136;-57
2023/06/20 12:56:22;;;;;;;;;;;;;;;31.12;39.96;93902.03;5015556;28;9044;-57
2023/06/20 12:59:00;;;;;;;;;;;;;;;31.13;38.88;93906.25;4998189;28;9082;-56
2023/06/20 13:01:34;;;;;;;;;;;;;;;31.11;39.34;93906.84;5002351;28;9416;-56
2023/06/20 13:04:17;;;;;;;;;;;;;;;31.14;39.06;93902.19;4978855;28;9562;-56
2023/06/20 13:07:19;;;;;;;;;;;;;;;31.14;39.04;93916.09;4981322;28;8442;-56
2023/06/20 13:10:04;;;;;;;;;;;;;;;31.15;39.52;93909.22;4991305;28;7039;-56
2023/06/20 13:13:09;;;;;;;;;;;;;;;31.16;39.77;93910.72;4999235;28;7496;-56
2023/06/20 13:15:45;;;;;;;;;;;;;;;31.17;38.74;93909.41;4982927;28;7136;-56
2023/06/20 13:18:12;;;;;;;;;;;;;;;31.15;39.67;93903.66;4979993;28;9109;-56
2023/06/20 13:20:55;;;;;;;;;;;;;;;31.23;39.59;93913.47;4993245;28;7130;-57
2023/06/20 13:23:32;;;;;;;;;;;;;;;31.23;39.22;93907.19;4986254;28;7033;-56
2023/06/20 13:26:00;;;;;;;;;;;;;;;31.22;39.37;93914.03;4980168;28;6873;-56
2023/06/20 13:28:43;;;;;;;;;;;;;;;31.25;39.42;93918.47;4994116;28;8730;-56
2023/06/20 13:31:41;;;;;;;;;;;;;;;31.28;39.07;93906.22;4986594;28;7053;-57
2023/06/20 13:34:19;;;;;;;;;;;;;;;31.27;38.98;93910.31;5016163;28;7466;-56
2023/06/20 13:36:48;;;;;;;;;;;;;;;31.30;39.05;93911.25;5039355;28;7460;-56
2023/06/20 13:39:47;;;;;;;;;;;;;;;31.32;39.26;93908.63;5046051;28;8285;-56
2023/06/20 13:42:34;;;;;;;;;;;;;;;31.29;39.77;93904.94;4986282;28;7100;-57
2023/06/20 13:45:04;;;;;;;;;;;;;;;31.33;38.60;93902.50;4987992;28;9111;-56
2023/06/20 13:47:29;;;;;;;;;;;;;;;31.36;39.02;93909.75;4990809;28;8772;-56
2023/06/20 13:50:16;;;;;;;;;;;;;;;31.34;39.65;93915.13;4973794;28;8813;-56
2023/06/20 13:52:43;;;;;;;;;;;;;;;31.34;38.95;93931.78;4985789;28;8283;-56
2023/06/20 13:55:13;;;;;;;;;;;;;;;31.31;38.81;93930.13;4964292;28;9324;-56
2023/06/20 13:57:40;;;;;;;;;;;;;;;31.32;38.90;93933.66;4984393;28;7790;-56
2023/06/20 14:00:11;;;;;;;;;;;;;;;31.33;39.40;93935.13;4984117;28;7218;-56
2023/06/20 14:02:42;;;;;;;;;;;;;;;31.35;39.36;93932.50;4966902;28;8077;-57
2023/06/20 14:05:10;;;;;;;;;;;;;;;31.37;39.59;93922.31;4985906;28;9210;-57
2023/06/20 14:07:48;;;;;;;;;;;;;;;31.37;39.39;93929.91;4973464;28;7049;-56
2023/06/20 14:10:23;;;;;;;;;;;;;;;31.39;39.77;93921.75;4968977;28;7236;-56
2023/06/20 14:13:05;;;;;;;;;;;;;;;31.38;39.73;93923.81;4974988;28;7527;-56
2023/06/20 14:16:02;;;;;;;;;;;;;;;31.36;39.55;93925.66;4970923;28;9129;-57
2023/06/20 14:19:06;;;;;;;;;;;;;;;31.33;39.04;93930.31;4978742;28;9831;-56
2023/06/20 14:21:39;;;;;;;;;;;;;;;31.35;39.13;93938.81;4968595;28;7457;-56